Time;durP1;ratioP1;P1;durP2;ratioP2;P2;SDS_P1;SDS_P2;PMS_P1;PMS_P2;Temp;Humidity;BMP_temperature;BMP_pressure;BME280_temperature;BME280_humidity;BME280_pressure;Samples;Min_cycle;Max_cycle;Signal;HPM_P1;HPM_P2
2023/09/05 00:02:05;;;;;;;115.17;110.70;;;;;;;26.50;44.00;99118.53;5017230;28;102963;-62
2023/09/05 00:04:34;;;;;;;110.83;106.63;;;;;;;27.15;42.64;99100.81;5019773;28;105138;-62
2023/09/05 00:07:02;;;;;;;113.38;108.97;;;;;;;26.59;42.41;99101.06;5014940;28;103874;-62
2023/09/05 00:09:30;;;;;;;111.47;107.17;;;;;;;26.74;42.84;99098.19;5013734;27;103165;-62
2023/09/05 00:12:00;;;;;;;103.43;99.50;;;;;;;26.80;42.03;99094.72;5015374;28;103222;-62
2023/09/05 00:14:29;;;;;;;103.40;99.50;;;;;;;27.69;41.31;99095.22;5015512;27;104215;-62
2023/09/05 00:16:57;;;;;;;101.65;97.70;;;;;;;27.53;40.99;99093.78;5014145;28;104251;-62
2023/09/05 00:19:25;;;;;;;105.90;101.80;;;;;;;26.46;42.54;99087.50;4997196;28;103213;-62
2023/09/05 00:21:53;;;;;;;102.67;98.77;;;;;;;27.03;41.17;99085.16;5016458;28;103580;-62
2023/09/05 00:24:31;;;;;;;107.90;103.80;;;;;;;26.31;42.32;99089.50;5012469;28;103040;-62
2023/09/05 00:27:02;;;;;;;107.22;103.05;;;;;;;26.22;42.53;99096.09;5014146;27;103260;-62
2023/09/05 00:29:31;;;;;;;100.47;96.57;;;;;;;26.41;42.23;99095.38;4998544;28;103847;-62
2023/09/05 00:31:59;;;;;;;110.68;106.38;;;;;;;25.05;44.83;99092.31;5014608;28;103096;-61
2023/09/05 00:34:28;;;;;;;112.97;108.67;;;;;;;25.13;44.07;99092.16;5017583;27;103078;-62
2023/09/05 00:36:58;;;;;;;104.33;100.30;;;;;;;24.93;44.26;99098.41;5014571;27;104020;-62
2023/09/05 00:39:26;;;;;;;103.43;99.53;;;;;;;25.30;43.93;99090.03;5016737;28;103213;-61
2023/09/05 00:41:55;;;;;;;98.75;94.95;;;;;;;25.62;43.01;99089.50;5015744;27;102950;-61
2023/09/05 00:44:25;;;;;;;96.90;93.20;;;;;;;25.78;42.71;99091.06;5012025;28;102857;-62
2023/09/05 00:46:55;;;;;;;101.25;97.45;;;;;;;26.26;41.92;99091.97;5009587;28;104031;-62
2023/09/05 00:49:27;;;;;;;98.40;94.70;;;;;;;26.01;41.41;99088.91;5014593;27;103220;-62
2023/09/05 00:51:58;;;;;;;100.33;96.43;;;;;;;25.47;42.83;99091.44;5014553;28;103013;-62
2023/09/05 00:54:26;;;;;;;110.43;106.13;;;;;;;24.89;44.60;99089.03;4994917;28;102776;-62
2023/09/05 00:56:55;;;;;;;109.38;105.25;;;;;;;24.96;44.98;99087.22;4996534;28;103314;-62
2023/09/05 00:59:23;;;;;;;101.68;97.78;;;;;;;24.44;45.84;99090.16;5015478;27;103003;-62
2023/09/05 01:01:56;;;;;;;103.60;99.50;;;;;;;24.76;45.17;99090.53;5015056;28;102835;-61
2023/09/05 01:04:24;;;;;;;96.53;92.72;;;;;;;25.80;43.16;99089.81;4998110;28;102972;-61
2023/09/05 01:06:57;;;;;;;99.45;95.55;;;;;;;26.45;42.41;99092.06;5016280;28;103364;-61
2023/09/05 01:09:36;;;;;;;100.03;96.13;;;;;;;26.50;41.93;99091.44;5016589;28;103003;-62
2023/09/05 01:12:06;;;;;;;94.35;90.75;;;;;;;26.85;41.29;99087.63;5013970;28;103049;-62
2023/09/05 01:14:34;;;;;;;99.83;96.13;;;;;;;26.55;42.01;99094.41;4993816;28;103938;-62
2023/09/05 01:17:05;;;;;;;95.00;91.30;;;;;;;26.89;41.25;99099.72;5018459;27;103357;-61
2023/09/05 01:19:35;;;;;;;85.63;82.43;;;;;;;26.70;41.29;99099.63;4994070;28;103455;-60
2023/09/05 01:22:19;;;;;;;92.50;88.90;;;;;;;26.66;41.83;99092.97;4995488;28;102969;-61
2023/09/05 01:24:50;;;;;;;99.97;95.95;;;;;;;26.90;41.64;99095.97;5014813;28;104091;-60
2023/09/05 01:27:22;;;;;;;88.50;85.13;;;;;;;26.70;41.45;99096.94;5011180;28;103585;-60
2023/09/05 01:29:51;;;;;;;90.60;87.17;;;;;;;26.55;41.71;99096.28;5012024;28;103386;-60
2023/09/05 01:32:23;;;;;;;105.93;102.00;;;;;;;26.45;42.00;99096.63;5016488;28;103011;-60
2023/09/05 01:34:51;;;;;;;102.85;98.95;;;;;;;26.28;42.54;99101.56;5016506;27;102652;-61
2023/09/05 01:37:19;;;;;;;102.10;98.20;;;;;;;26.18;42.71;99103.81;4996112;28;105231;-60
2023/09/05 01:39:47;;;;;;;105.80;101.60;;;;;;;25.35;43.28;99098.38;4998775;28;103482;-60
2023/09/05 01:42:17;;;;;;;102.95;99.05;;;;;;;25.58;43.21;99087.38;5011020;28;102990;-60
2023/09/05 01:44:45;;;;;;;101.07;97.27;;;;;;;26.59;42.11;99082.09;4999178;27;104140;-61
2023/09/05 01:47:13;;;;;;;98.47;94.80;;;;;;;26.83;42.08;99087.00;5016362;28;103443;-61
2023/09/05 01:49:41;;;;;;;95.45;91.65;;;;;;;26.90;41.55;99078.88;5013949;27;103388;-61
2023/09/05 01:52:11;;;;;;;103.55;99.55;;;;;;;26.09;43.25;99085.19;5015803;28;102672;-61
2023/09/05 01:54:41;;;;;;;97.55;93.75;;;;;;;25.45;44.36;99085.38;4996202;28;104208;-61
2023/09/05 01:57:09;;;;;;;100.20;96.40;;;;;;;25.78;43.63;99075.66;5014270;28;103977;-61
2023/09/05 01:59:38;;;;;;;99.38;95.47;;;;;;;25.17;44.14;99079.09;5015643;28;103192;-61
2023/09/05 02:02:06;;;;;;;92.53;89.03;;;;;;;26.32;42.57;99074.94;4997633;28;102763;-62
2023/09/05 02:04:35;;;;;;;98.78;95.00;;;;;;;26.04;43.09;99074.13;5001451;28;104001;-61
2023/09/05 02:07:03;;;;;;;96.32;92.55;;;;;;;26.27;42.54;99067.41;5000570;27;103316;-61
2023/09/05 02:09:35;;;;;;;95.93;92.22;;;;;;;25.84;43.10;99072.16;5014559;27;103235;-61
2023/09/05 02:12:06;;;;;;;98.22;94.32;;;;;;;25.09;44.62;99065.72;5010237;28;103478;-61
2023/09/05 02:14:35;;;;;;;96.80;93.15;;;;;;;26.18;42.60;99084.03;5001709;28;102968;-61
2023/09/05 02:17:04;;;;;;;100.30;96.50;;;;;;;26.29;42.86;99075.31;5007919;28;103254;-61
2023/09/05 02:19:33;;;;;;;96.60;92.90;;;;;;;25.94;43.25;99071.78;4993968;28;103929;-61
2023/09/05 02:22:02;;;;;;;97.78;94.03;;;;;;;25.84;43.10;99066.75;5011226;28;102942;-61
2023/09/05 02:24:30;;;;;;;98.57;94.77;;;;;;;25.75;43.52;99062.53;5011478;27;104069;-62
2023/09/05 02:26:58;;;;;;;104.38;100.40;;;;;;;25.64;43.62;99062.22;5009812;28;103292;-62
2023/09/05 02:29:28;;;;;;;98.00;94.28;;;;;;;26.00;43.07;99070.16;4990242;28;104129;-61
2023/09/05 02:31:56;;;;;;;101.75;97.85;;;;;;;25.81;43.39;99064.44;5006792;28;102961;-61
2023/09/05 02:34:25;;;;;;;99.90;95.90;;;;;;;26.04;43.15;99077.69;5013473;28;102710;-61
2023/09/05 02:36:54;;;;;;;98.40;94.70;;;;;;;26.09;42.69;99069.78;5011790;28;103483;-62
2023/09/05 02:39:22;;;;;;;95.25;91.45;;;;;;;25.04;44.58;99073.59;5010924;28;103496;-61
2023/09/05 02:41:50;;;;;;;101.53;97.53;;;;;;;25.58;43.83;99071.97;4997551;28;102823;-61
2023/09/05 02:44:18;;;;;;;101.20;97.30;;;;;;;25.53;44.05;99074.44;4999039;28;104010;-61
2023/09/05 02:46:48;;;;;;;94.47;90.67;;;;;;;26.18;43.04;99074.03;5000082;28;103494;-61
2023/09/05 02:49:16;;;;;;;95.18;91.57;;;;;;;26.52;42.50;99081.25;5010406;28;104645;-61
2023/09/05 02:51:46;;;;;;;97.95;94.25;;;;;;;26.30;42.83;99082.44;5006665;28;104993;-61
2023/09/05 02:54:13;;;;;;;95.40;91.80;;;;;;;26.41;42.64;99084.56;4991466;28;102901;-61
2023/09/05 02:56:41;;;;;;;96.18;92.53;;;;;;;26.63;42.49;99094.22;5009595;27;103307;-61
2023/09/05 02:59:09;;;;;;;98.00;94.30;;;;;;;26.81;42.45;99096.34;5013993;27;103161;-61
2023/09/05 03:01:37;;;;;;;99.68;95.97;;;;;;;26.95;41.69;99090.78;4997497;28;103970;-62
2023/09/05 03:04:06;;;;;;;89.50;86.00;;;;;;;26.82;42.51;99092.63;5009788;28;102826;-61
2023/09/05 03:06:37;;;;;;;95.57;91.88;;;;;;;26.31;43.08;99095.75;5007519;27;103065;-62
2023/09/05 03:09:09;;;;;;;89.82;86.32;;;;;;;25.07;45.66;99100.22;4994929;28;103586;-61
2023/09/05 03:11:39;;;;;;;92.27;88.67;;;;;;;25.89;44.88;99096.75;4994728;28;102899;-60
2023/09/05 03:14:08;;;;;;;100.13;96.20;;;;;;;25.40;45.48;99101.38;4993968;28;103255;-61
2023/09/05 03:16:37;;;;;;;99.95;96.05;;;;;;;25.22;45.37;99100.97;4994654;28;103385;-61
2023/09/05 03:19:05;;;;;;;97.72;93.93;;;;;;;25.97;44.53;99090.31;5010809;27;103287;-60
2023/09/05 03:21:33;;;;;;;102.65;98.60;;;;;;;25.76;44.99;99093.97;4993471;28;102987;-61
2023/09/05 03:24:04;;;;;;;101.82;97.75;;;;;;;25.51;44.71;99090.03;4993562;28;104088;-61
2023/09/05 03:26:34;;;;;;;105.37;101.17;;;;;;;25.24;45.19;99088.09;5014572;28;103431;-60
2023/09/05 03:29:02;;;;;;;98.55;94.65;;;;;;;25.69;44.72;99086.81;4988550;28;103497;-60
2023/09/05 03:31:30;;;;;;;99.53;95.63;;;;;;;25.80;44.53;99087.09;5002589;28;102778;-60
2023/09/05 03:33:58;;;;;;;98.10;94.30;;;;;;;26.11;43.80;99092.06;4995494;28;104005;-62
2023/09/05 03:36:29;;;;;;;105.18;101.07;;;;;;;25.47;44.93;99090.56;4996242;28;103394;-61
2023/09/05 03:38:57;;;;;;;104.60;100.50;;;;;;;24.98;46.36;99085.16;4990291;28;103523;-62
2023/09/05 03:41:25;;;;;;;105.05;100.85;;;;;;;25.38;45.10;99090.72;4990154;28;103156;-61
2023/09/05 03:43:54;;;;;;;101.97;98.07;;;;;;;25.41;45.60;99081.38;5007422;28;103933;-61
2023/09/05 03:46:22;;;;;;;108.07;103.80;;;;;;;24.63;46.90;99079.59;4988822;27;103514;-61
2023/09/05 03:48:52;;;;;;;108.88;104.57;;;;;;;25.00;46.24;99080.41;5010810;27;103273;-61
2023/09/05 03:51:20;;;;;;;100.40;96.50;;;;;;;25.05;45.70;99077.94;5022536;27;103084;-61
2023/09/05 03:53:49;;;;;;;100.15;96.25;;;;;;;24.45;47.02;99079.16;4989231;28;104116;-60
2023/09/05 03:56:17;;;;;;;101.10;97.20;;;;;;;24.49;47.55;99071.50;5007261;27;103389;-61
2023/09/05 03:58:45;;;;;;;108.95;104.57;;;;;;;24.45;47.45;99072.94;5027735;27;103485;-61
2023/09/05 04:01:15;;;;;;;104.68;100.57;;;;;;;24.92;46.50;99065.16;5007941;27;102776;-61
2023/09/05 04:03:45;;;;;;;107.65;103.50;;;;;;;24.93;46.47;99060.56;5009086;27;103183;-61
2023/09/05 04:06:13;;;;;;;104.50;100.37;;;;;;;24.63;47.00;99068.78;4990570;28;103255;-62
2023/09/05 04:08:41;;;;;;;106.07;101.77;;;;;;;25.57;45.35;99070.28;5006354;27;103300;-61
2023/09/05 04:11:09;;;;;;;103.28;99.25;;;;;;;25.52;45.32;99063.81;4992933;27;102870;-61
2023/09/05 04:13:37;;;;;;;103.65;99.65;;;;;;;24.86;46.54;99073.19;5010169;28;102799;-61
2023/09/05 04:16:06;;;;;;;107.43;103.30;;;;;;;25.27;46.25;99068.78;5003974;28;104269;-61
2023/09/05 04:18:35;;;;;;;98.90;95.00;;;;;;;24.85;46.15;99061.53;4990052;28;103327;-61
2023/09/05 04:21:03;;;;;;;103.70;99.78;;;;;;;25.10;46.27;99075.50;4992723;28;102713;-62
2023/09/05 04:23:32;;;;;;;104.22;100.15;;;;;;;24.82;46.48;99064.63;5011236;27;103850;-61
2023/09/05 04:26:02;;;;;;;106.00;101.90;;;;;;;25.28;46.23;99063.19;5005728;27;103990;-61
2023/09/05 04:28:31;;;;;;;104.25;100.22;;;;;;;25.20;46.10;99067.91;5011701;27;103196;-61
2023/09/05 04:31:03;;;;;;;105.00;101.00;;;;;;;25.35;45.88;99071.34;4991287;28;103169;-61
2023/09/05 04:33:37;;;;;;;108.07;103.87;;;;;;;25.25;46.14;99070.84;4994833;28;104422;-61
2023/09/05 04:36:09;;;;;;;104.57;100.57;;;;;;;24.57;47.65;99069.53;4991018;28;105926;-61
2023/09/05 04:38:39;;;;;;;105.27;101.17;;;;;;;25.11;46.72;99064.50;5009937;27;103317;-61
2023/09/05 04:41:08;;;;;;;97.47;93.78;;;;;;;25.76;45.43;99075.03;5007965;27;102804;-61
2023/09/05 04:43:37;;;;;;;97.68;93.88;;;;;;;25.31;46.38;99068.22;4997795;28;103222;-61
2023/09/05 04:46:09;;;;;;;102.45;98.55;;;;;;;25.54;45.63;99065.31;5010541;28;104187;-61
2023/09/05 04:48:39;;;;;;;107.00;102.78;;;;;;;25.42;46.03;99074.94;5009262;27;104100;-62
2023/09/05 04:51:10;;;;;;;107.67;103.50;;;;;;;25.77;45.64;99073.13;4992395;28;103404;-62
2023/09/05 04:53:39;;;;;;;104.82;100.70;;;;;;;25.51;45.44;99071.09;5007838;28;103760;-62
2023/09/05 04:56:07;;;;;;;103.35;99.25;;;;;;;25.85;45.13;99070.28;4992523;28;104291;-62
2023/09/05 04:58:37;;;;;;;104.25;100.15;;;;;;;26.28;44.54;99068.22;5013639;27;103217;-61
2023/09/05 05:01:07;;;;;;;104.93;100.93;;;;;;;26.48;44.17;99074.56;5011099;28;102871;-62
2023/09/05 05:03:38;;;;;;;101.93;97.93;;;;;;;26.55;44.13;99071.88;5010263;28;104227;-62
2023/09/05 05:06:10;;;;;;;104.72;100.70;;;;;;;26.19;44.39;99081.09;4989997;28;103406;-62
2023/09/05 05:08:41;;;;;;;108.78;104.57;;;;;;;26.55;44.23;99080.84;5008687;28;103395;-62
2023/09/05 05:11:09;;;;;;;102.05;98.15;;;;;;;26.68;44.21;99080.88;5011101;28;103871;-61
2023/09/05 05:13:38;;;;;;;95.72;92.10;;;;;;;26.82;44.39;99079.91;5008435;28;102808;-61
2023/09/05 05:16:08;;;;;;;101.80;97.90;;;;;;;26.45;45.00;99092.06;5008076;28;103109;-61
2023/09/05 05:18:37;;;;;;;97.10;93.40;;;;;;;26.89;43.92;99083.47;5009155;28;103077;-62
2023/09/05 05:21:06;;;;;;;95.95;92.25;;;;;;;25.65;46.55;99094.53;4986478;28;103252;-62
2023/09/05 05:23:38;;;;;;;86.00;82.70;;;;;;;26.80;44.50;99100.97;5012403;27;102814;-62
2023/09/05 05:26:08;;;;;;;82.93;79.72;;;;;;;26.96;44.25;99095.16;5007092;27;103265;-61
2023/09/05 05:28:41;;;;;;;90.47;86.95;;;;;;;26.49;45.90;99095.22;5008970;28;103413;-61
2023/09/05 05:31:14;;;;;;;68.55;65.75;;;;;;;26.48;46.13;99090.81;5012562;27;104085;-62
2023/09/05 05:33:43;;;;;;;86.97;83.57;;;;;;;26.42;45.87;99086.19;5005526;28;103046;-63
2023/09/05 05:36:11;;;;;;;89.60;86.18;;;;;;;24.25;50.37;99099.69;5006919;28;103727;-62
2023/09/05 05:38:44;;;;;;;97.78;94.07;;;;;;;23.83;51.31;99094.09;5006352;28;103536;-63
2023/09/05 05:41:14;;;;;;;101.32;97.22;;;;;;;23.05;53.16;99097.13;5007268;28;103269;-63
2023/09/05 05:43:43;;;;;;;70.80;68.00;;;;;;;23.27;53.09;99096.28;5006529;28;103041;-61
2023/09/05 05:46:14;;;;;;;65.28;62.67;;;;;;;23.14;53.43;99093.34;5011980;27;103284;-62
2023/09/05 05:48:42;;;;;;;56.92;54.63;;;;;;;23.90;52.21;99100.41;5012411;27;104511;-63
2023/09/05 05:51:11;;;;;;;55.53;53.23;;;;;;;23.78;53.05;99094.63;5014936;28;103037;-64
2023/09/05 05:53:41;;;;;;;51.47;49.38;;;;;;;23.24;53.52;99104.75;5015285;28;104374;-63
2023/09/05 05:56:15;;;;;;;55.45;53.20;;;;;;;23.53;52.67;99104.84;5008478;28;103294;-63
2023/09/05 05:58:44;;;;;;;49.10;46.90;;;;;;;23.70;53.20;99105.50;5010593;28;103323;-64
2023/09/05 06:01:13;;;;;;;46.28;44.40;;;;;;;23.88;53.25;99097.06;5013895;28;102813;-65
2023/09/05 06:03:43;;;;;;;50.17;48.17;;;;;;;24.11;52.79;99097.84;4981877;27;104364;-64
2023/09/05 06:06:12;;;;;;;47.50;45.50;;;;;;;23.82;53.45;99095.94;5013413;27;103168;-64
2023/09/05 06:08:41;;;;;;;48.38;46.38;;;;;;;23.92;53.27;99103.75;5011577;27;103363;-64
2023/09/05 06:11:11;;;;;;;41.83;40.13;;;;;;;23.77;53.36;99105.63;5009577;28;102840;-64
2023/09/05 06:13:40;;;;;;;42.92;41.22;;;;;;;24.09;52.64;99102.53;5011160;27;102775;-63
2023/09/05 06:16:11;;;;;;;43.23;41.43;;;;;;;24.11;52.29;99103.25;5010716;28;103195;-62
2023/09/05 06:18:41;;;;;;;44.43;42.63;;;;;;;24.32;53.05;99106.00;5010529;28;103257;-62
2023/09/05 06:21:10;;;;;;;46.53;44.50;;;;;;;24.31;51.85;99109.72;5012790;27;102748;-64
2023/09/05 06:23:38;;;;;;;49.53;47.53;;;;;;;24.56;52.24;99104.84;5011349;27;102727;-62
2023/09/05 06:26:06;;;;;;;44.00;42.20;;;;;;;25.88;49.41;99103.19;5010962;28;103365;-63
2023/09/05 06:28:35;;;;;;;50.53;48.42;;;;;;;25.18;50.75;99113.22;4993054;28;105108;-64
2023/09/05 06:31:09;;;;;;;53.90;51.80;;;;;;;26.55;47.67;99107.94;5012819;27;102761;-64
2023/09/05 06:33:38;;;;;;;49.88;47.88;;;;;;;25.38;50.73;99116.94;5020375;28;102748;-64
2023/09/05 06:36:07;;;;;;;62.33;59.83;;;;;;;24.82;51.98;99112.41;5012803;28;103281;-64
2023/09/05 06:38:36;;;;;;;68.10;65.40;;;;;;;25.21;51.88;99107.41;5012164;27;103291;-63
2023/09/05 06:41:07;;;;;;;75.75;72.63;;;;;;;26.02;50.21;99106.00;5015529;28;105083;-64
2023/09/05 06:43:36;;;;;;;66.55;63.75;;;;;;;26.12;49.43;99112.72;5018002;28;102805;-63
2023/09/05 06:46:09;;;;;;;68.95;66.25;;;;;;;25.78;50.50;99110.84;5014016;28;103533;-63
2023/09/05 06:48:40;;;;;;;65.32;62.63;;;;;;;25.09;51.70;99103.56;5017619;28;103907;-63
2023/09/05 06:51:08;;;;;;;66.75;64.00;;;;;;;25.19;51.49;99104.91;5002616;28;103010;-63
2023/09/05 06:53:37;;;;;;;62.00;59.47;;;;;;;25.97;49.87;99103.03;5020226;28;103953;-64
2023/09/05 06:56:08;;;;;;;61.40;58.90;;;;;;;25.38;50.06;99106.94;5016668;27;103751;-64
2023/09/05 06:58:36;;;;;;;66.93;64.22;;;;;;;26.00;49.00;99116.16;5016359;28;103215;-63
2023/09/05 07:01:08;;;;;;;56.93;54.60;;;;;;;27.26;46.60;99108.31;5017755;27;102877;-64
2023/09/05 07:03:38;;;;;;;54.00;51.83;;;;;;;27.40;46.79;99118.13;5021246;28;104198;-64
2023/09/05 07:06:07;;;;;;;60.70;58.30;;;;;;;27.74;45.70;99114.41;5016215;28;103786;-64
2023/09/05 07:08:35;;;;;;;59.05;56.65;;;;;;;27.93;45.96;99122.50;5016390;27;103599;-63
2023/09/05 07:11:04;;;;;;;60.15;57.85;;;;;;;28.54;43.80;99123.00;5020733;28;103618;-63
2023/09/05 07:13:33;;;;;;;64.88;62.38;;;;;;;28.74;43.76;99118.31;5004965;28;104586;-63
2023/09/05 07:16:01;;;;;;;67.27;64.67;;;;;;;28.92;44.41;99120.34;5020090;27;103493;-62
2023/09/05 07:18:30;;;;;;;70.85;68.15;;;;;;;28.92;43.32;99114.91;5021044;27;103325;-64
2023/09/05 07:21:00;;;;;;;70.38;67.57;;;;;;;28.29;45.29;99129.38;5001111;27;103510;-62
2023/09/05 07:23:29;;;;;;;58.13;55.83;;;;;;;28.00;44.50;99128.78;5016780;27;102718;-63
2023/09/05 07:26:04;;;;;;;60.88;58.47;;;;;;;28.77;43.32;99107.03;5002131;28;104257;-62
2023/09/05 07:28:32;;;;;;;66.18;63.58;;;;;;;28.48;44.22;99109.44;5014070;28;103518;-63
2023/09/05 07:31:03;;;;;;;64.00;61.50;;;;;;;29.13;43.17;99102.84;5020580;28;102736;-62
2023/09/05 07:33:37;;;;;;;49.92;47.92;;;;;;;29.69;42.18;99106.41;5022182;27;104120;-62
2023/09/05 07:36:06;;;;;;;41.50;39.85;;;;;;;30.36;41.01;99107.38;5018996;28;103304;-63
2023/09/05 07:38:35;;;;;;;36.57;35.07;;;;;;;30.79;39.85;99101.84;5017620;28;103353;-62
2023/09/05 07:41:04;;;;;;;33.17;31.77;;;;;;;31.02;39.48;99104.66;5000882;28;102701;-62
2023/09/05 07:43:33;;;;;;;39.45;37.83;;;;;;;30.41;40.45;99105.66;5001466;28;102926;-63
2023/09/05 07:46:04;;;;;;;34.33;32.93;;;;;;;31.04;39.91;99112.63;5017573;28;103325;-64
2023/09/05 07:48:32;;;;;;;40.63;38.88;;;;;;;31.15;38.70;99109.94;5005342;28;103478;-64
2023/09/05 07:51:04;;;;;;;44.90;43.03;;;;;;;31.54;38.00;99097.59;5017294;27;103278;-64
2023/09/05 07:53:37;;;;;;;52.17;50.08;;;;;;;31.73;38.09;99103.75;5012100;27;102743;-63
2023/09/05 07:56:06;;;;;;;55.03;52.93;;;;;;;30.72;38.82;99098.34;5017639;27;103375;-64
2023/09/05 07:58:36;;;;;;;64.80;62.30;;;;;;;32.17;37.08;99096.88;5012655;27;103257;-64
2023/09/05 08:01:09;;;;;;;50.70;48.53;;;;;;;30.67;38.72;99090.03;5013249;28;102894;-64
2023/09/05 08:03:40;;;;;;;46.90;45.08;;;;;;;33.07;35.61;99090.56;5015019;28;104180;-64
2023/09/05 08:06:14;;;;;;;23.45;22.35;;;;;;;33.89;34.45;99093.56;5018002;28;103260;-64
2023/09/05 08:08:45;;;;;;;37.40;35.60;;;;;;;32.70;36.15;99098.31;4996829;28;103241;-64
2023/09/05 08:11:13;;;;;;;33.00;31.60;;;;;;;33.16;34.88;99094.56;5021528;28;102559;-63
2023/09/05 08:13:43;;;;;;;39.47;37.87;;;;;;;33.35;34.27;99092.41;5023322;27;102697;-64
2023/09/05 08:16:13;;;;;;;64.72;62.22;;;;;;;32.05;35.99;99100.47;5018110;28;103874;-63
2023/09/05 08:18:44;;;;;;;43.67;41.97;;;;;;;33.57;34.02;99098.84;5017064;28;103101;-63
2023/09/05 08:21:19;;;;;;;41.58;39.90;;;;;;;34.03;33.81;99091.28;5018145;28;102908;-64
2023/09/05 08:23:50;;;;;;;41.83;39.92;;;;;;;32.13;35.01;99093.81;5014344;28;103360;-64
2023/09/05 08:26:21;;;;;;;46.90;45.03;;;;;;;33.20;34.44;99094.91;5011903;28;103301;-64
2023/09/05 08:28:52;;;;;;;60.65;58.20;;;;;;;34.21;33.10;99093.78;5012449;27;103588;-64
2023/09/05 08:31:24;;;;;;;70.22;67.55;;;;;;;35.59;32.04;99092.31;5019650;27;102868;-64
2023/09/05 08:33:54;;;;;;;77.03;74.03;;;;;;;35.08;32.51;99088.28;5018417;27;102869;-63
2023/09/05 08:36:25;;;;;;;73.93;71.13;;;;;;;34.61;32.87;99091.56;4998514;28;103017;-65
2023/09/05 08:39:01;;;;;;;76.15;73.25;;;;;;;35.39;32.76;99085.56;5000982;28;104277;-64
2023/09/05 08:41:32;;;;;;;59.05;56.75;;;;;;;33.90;33.89;99088.94;5017620;27;102822;-63
2023/09/05 08:44:04;;;;;;;87.75;84.45;;;;;;;34.95;31.73;99083.97;4997758;28;102943;-63
2023/09/05 08:46:36;;;;;;;67.30;64.70;;;;;;;33.24;34.34;99085.94;4999022;28;103246;-63
2023/09/05 08:49:09;;;;;;;60.57;58.27;;;;;;;31.92;35.80;99087.00;5003618;27;103366;-64
2023/09/05 08:51:44;;;;;;;63.65;61.25;;;;;;;33.16;34.48;99082.75;4999588;28;102917;-63
2023/09/05 08:54:18;;;;;;;64.50;62.10;;;;;;;34.02;33.96;99081.44;5018877;28;102967;-63
2023/09/05 08:56:48;;;;;;;91.37;88.07;;;;;;;35.29;32.20;99082.69;5018353;28;103246;-64
2023/09/05 08:59:20;;;;;;;96.40;92.75;;;;;;;34.39;32.71;99090.72;4997074;28;103287;-62
2023/09/05 09:01:50;;;;;;;90.28;86.93;;;;;;;36.36;32.48;99084.28;5014244;28;102760;-63
2023/09/05 09:04:21;;;;;;;72.32;69.53;;;;;;;35.24;31.79;99079.91;5017296;27;102987;-63
2023/09/05 09:07:00;;;;;;;102.70;98.90;;;;;;;35.65;32.44;99083.84;4991638;28;105700;-63
2023/09/05 09:09:34;;;;;;;96.37;92.83;;;;;;;35.25;31.88;99069.78;5018657;28;103290;-63
2023/09/05 09:12:06;;;;;;;69.20;66.60;;;;;;;36.28;31.20;99071.06;5015414;27;102883;-63
2023/09/05 09:14:34;;;;;;;64.72;62.25;;;;;;;37.57;30.85;99071.66;5016570;28;103011;-63
2023/09/05 09:17:04;;;;;;;91.20;87.85;;;;;;;35.84;31.42;99074.09;5016797;28;104318;-63
2023/09/05 09:19:35;;;;;;;100.00;96.25;;;;;;;36.55;31.28;99074.50;4991831;28;103230;-62
2023/09/05 09:22:08;;;;;;;72.30;69.43;;;;;;;35.65;31.27;99081.09;5012922;28;103087;-63
2023/09/05 09:24:39;;;;;;;112.60;108.53;;;;;;;34.55;32.43;99081.63;4997448;28;102863;-63
2023/09/05 09:27:09;;;;;;;92.43;88.93;;;;;;;35.16;31.88;99087.81;5011941;28;103519;-62
2023/09/05 09:29:41;;;;;;;84.03;80.82;;;;;;;36.54;30.84;99072.84;5010714;28;103235;-63
2023/09/05 09:32:12;;;;;;;103.17;99.30;;;;;;;37.34;31.19;99076.88;5012016;27;103097;-62
2023/09/05 09:34:45;;;;;;;71.07;68.32;;;;;;;37.45;29.59;99078.59;5013515;28;102905;-62
2023/09/05 09:37:25;;;;;;;100.43;96.75;;;;;;;35.84;31.39;99082.34;5012354;28;104219;-62
2023/09/05 09:39:58;;;;;;;107.30;103.38;;;;;;;35.75;31.44;99081.19;5011589;28;103049;-63
2023/09/05 09:42:27;;;;;;;71.47;68.70;;;;;;;37.22;29.82;99073.59;5019053;27;103141;-63
2023/09/05 09:44:57;;;;;;;70.72;68.03;;;;;;;36.48;30.39;99068.41;5017421;28;102874;-63
2023/09/05 09:47:32;;;;;;;94.70;91.20;;;;;;;36.02;29.98;99070.06;5015381;27;103278;-64
2023/09/05 09:50:03;;;;;;;71.75;68.85;;;;;;;35.17;31.01;99062.00;5015889;28;103259;-64
2023/09/05 09:52:39;;;;;;;107.95;103.97;;;;;;;34.40;32.41;99067.72;5014269;28;102941;-64
2023/09/05 09:55:11;;;;;;;104.82;100.95;;;;;;;35.92;32.00;99059.84;5015556;28;104617;-63
2023/09/05 09:57:47;;;;;;;111.93;107.82;;;;;;;36.26;32.45;99051.25;5012471;27;103300;-62
2023/09/05 10:00:18;;;;;;;104.40;100.57;;;;;;;38.01;30.62;99044.31;5018076;27;103306;-63
2023/09/05 10:02:50;;;;;;;120.10;115.70;;;;;;;34.76;32.26;99049.75;5019216;27;102773;-64
2023/09/05 10:05:24;;;;;;;117.70;113.40;;;;;;;35.55;32.32;99049.94;5014704;28;104223;-64
2023/09/05 10:07:56;;;;;;;109.10;105.15;;;;;;;36.53;30.83;99038.16;5010463;28;103284;-63
2023/09/05 10:10:26;;;;;;;98.30;94.18;;;;;;;36.69;31.10;99050.88;5012717;28;103478;-63
2023/09/05 10:12:59;;;;;;;111.68;107.63;;;;;;;35.72;31.68;99035.00;5011801;28;102888;-63
2023/09/05 10:15:31;;;;;;;115.57;111.37;;;;;;;36.23;32.04;99038.88;5010626;28;102910;-63
2023/09/05 10:18:03;;;;;;;73.30;70.60;;;;;;;37.59;30.64;99041.91;5009834;28;103271;-64
2023/09/05 10:20:35;;;;;;;69.63;66.85;;;;;;;36.64;30.67;99034.34;5011811;27;103489;-62
2023/09/05 10:23:08;;;;;;;100.22;96.63;;;;;;;33.76;33.21;99033.66;5012240;28;103000;-62
2023/09/05 10:25:40;;;;;;;108.63;104.72;;;;;;;36.16;31.33;99034.72;5015012;28;102893;-63
2023/09/05 10:28:10;;;;;;;77.22;74.32;;;;;;;36.81;30.75;99032.19;5008507;27;103617;-63
2023/09/05 10:30:43;;;;;;;101.90;98.20;;;;;;;34.87;31.79;99040.53;5008986;27;103256;-63
2023/09/05 10:33:14;;;;;;;108.72;104.78;;;;;;;35.20;31.20;99039.53;5011098;28;102926;-63
2023/09/05 10:35:45;;;;;;;120.30;115.93;;;;;;;35.21;32.14;99041.16;5011187;28;103198;-63
2023/09/05 10:38:19;;;;;;;69.60;66.90;;;;;;;37.13;30.04;99037.50;5006603;28;103312;-63
2023/09/05 10:40:50;;;;;;;75.00;72.20;;;;;;;36.82;29.97;99031.09;5000629;28;103464;-63
2023/09/05 10:43:21;;;;;;;83.75;80.60;;;;;;;37.64;30.62;99032.81;4989481;28;103180;-64
2023/09/05 10:45:56;;;;;;;83.47;80.38;;;;;;;36.84;30.44;99028.91;5013278;28;103058;-63
2023/09/05 10:48:35;;;;;;;104.60;100.72;;;;;;;36.45;30.60;99019.41;4990872;28;104345;-63
2023/09/05 10:51:10;;;;;;;118.55;114.25;;;;;;;35.80;31.76;99023.50;5008573;28;103319;-63
2023/09/05 10:53:41;;;;;;;74.43;71.73;;;;;;;37.37;30.30;99011.03;5006291;27;103250;-63
2023/09/05 10:56:40;;;;;;;79.63;76.72;;;;;;;37.14;30.32;99006.91;5011016;27;102795;-63
2023/09/05 10:59:12;;;;;;;96.60;93.10;;;;;;;35.47;31.23;99012.81;5010574;28;104089;-63
2023/09/05 11:01:52;;;;;;;99.47;95.78;;;;;;;35.85;30.96;99015.28;5012850;28;103119;-62
2023/09/05 11:04:26;;;;;;;82.78;79.65;;;;;;;35.04;33.82;99010.22;4993203;28;104133;-63
2023/09/05 11:07:02;;;;;;;105.18;101.30;;;;;;;36.34;32.21;99013.06;5014154;28;102655;-63
2023/09/05 11:09:48;;;;;;;84.80;81.67;;;;;;;33.81;33.83;99018.13;5012182;27;103084;-63
2023/09/05 11:12:18;;;;;;;86.13;82.97;;;;;;;37.65;30.57;99010.47;5010123;27;104223;-63
2023/09/05 11:14:49;;;;;;;74.57;71.67;;;;;;;37.63;30.07;99004.44;5011216;28;102979;-63
2023/09/05 11:17:20;;;;;;;116.03;111.67;;;;;;;38.45;28.71;99010.53;5007998;27;102937;-63
2023/09/05 11:19:51;;;;;;;75.28;72.55;;;;;;;38.25;29.30;99020.53;5014053;28;103062;-63